Accueil
METAR-TAF:

METAR-TAF

Aéroports :

Aéroport international de Berne

Berne, Suisse

latitude: 46-55N, longitude: 007-30E, altitude: 505 m

Observation

Le bulletin a été fait il y a 29 minutes, à 15:20 UTC
Vent 10 kt de nord-ouest, variant entre ouest et nord
Température 27°C
Humidité 48%
Pression 1017 hPa
Visibilité 10 km ou plus
Quelques nuages à une hauteur de 5800 ft

METAR: LSZB 211520Z 31010KT 280V350 9999 FEW058 27/15 Q1017 NOSIG

Heure: 17:49 (15:49 UTC)

Prévision

Le bulletin a été fait il y a 4 heures et 24 minutes, à 11:25 UTC
Prévision valable du 21 à 12 UTC au 21 à 21 UTC
Vent 14 kt de ouest/nord-ouest
Visibilité 10 km ou plus
Quelques nuages à une hauteur de 6000 ft
Temporairement
du 21 à 14 UTC au 21 à 21 UTC
Vent 12 kt de nord

TAF: LSZB 211125Z 2112/2121 29014KT 9999 FEW060 TEMPO 2114/2121 36012KT

Observations et prévisions météorologiques de plus de 4000 aéroports (messages METAR et TAF).

Les stations disponibles sont représentées par des disques jaunes et rouges sur la carte.

Passer la souris dessus pour voir le nom de la station.

Cliquer dessus pour voir les observations et prévisions météorologiques.

Pour changer de carte: cliquez sur les boutons verts avec une croix noire pour zoomer, sur le bouton vert avec un tiret pour effectuer un zoom arrière, ou sur les flèches vertes pour les cartes adjacentes.


METAR-TAF: